Time;durP1;ratioP1;P1;durP2;ratioP2;P2;SDS_P1;SDS_P2;PMS_P1;PMS_P2;Temp;Humidity;BMP_temperature;BMP_pressure;BME280_temperature;BME280_humidity;BME280_pressure;Samples;Min_cycle;Max_cycle;Signal;HPM_P1;HPM_P2
2021/12/29 00:01:42;;;;;;;50.08;26.73;;;;;;;;;;5057281;28;20265;-60
2021/12/29 00:04:08;;;;;;;55.65;26.83;;;;;;;;;;5057228;28;20173;-59
2021/12/29 00:06:34;;;;;;;60.63;27.98;;;;;;;;;;5056949;28;20176;-59
2021/12/29 00:09:00;;;;;;;56.05;27.45;;;;;;;;;;5057003;28;20538;-59
2021/12/29 00:11:27;;;;;;;56.22;27.55;;;;;;;;;;5057100;28;20211;-59
2021/12/29 00:13:53;;;;;;;53.40;27.08;;;;;;;;;;5057144;28;20161;-58
2021/12/29 00:16:19;;;;;;;54.15;27.20;;;;;;;;;;5056873;28;20168;-59
2021/12/29 00:18:45;;;;;;;60.58;27.83;;;;;;;;;;5056897;28;20670;-60
2021/12/29 00:21:11;;;;;;;54.13;26.17;;;;;;;;;;5056822;28;20169;-58
2021/12/29 00:23:37;;;;;;;58.67;27.17;;;;;;;;;;5057127;28;20227;-58
2021/12/29 00:26:03;;;;;;;49.88;25.98;;;;;;;;;;5056865;28;20161;-59
2021/12/29 00:28:29;;;;;;;56.60;26.80;;;;;;;;;;5056847;28;20642;-60
2021/12/29 00:30:55;;;;;;;56.00;27.58;;;;;;;;;;5056518;28;20248;-60
2021/12/29 00:33:21;;;;;;;50.30;27.02;;;;;;;;;;5056460;28;20610;-59
2021/12/29 00:35:48;;;;;;;54.00;26.80;;;;;;;;;;5056752;28;20211;-60
2021/12/29 00:38:14;;;;;;;52.67;26.38;;;;;;;;;;5056813;28;20168;-60
2021/12/29 00:40:40;;;;;;;52.10;28.10;;;;;;;;;;5056246;28;20167;-59
2021/12/29 00:43:07;;;;;;;51.58;25.67;;;;;;;;;;5056455;28;20500;-60
2021/12/29 00:45:36;;;;;;;56.30;27.45;;;;;;;;;;5055266;28;20265;-59
2021/12/29 00:48:02;;;;;;;56.70;27.10;;;;;;;;;;5056593;28;20611;-59
2021/12/29 00:50:28;;;;;;;60.80;28.80;;;;;;;;;;5056386;28;20173;-60
2021/12/29 00:52:54;;;;;;;51.67;27.08;;;;;;;;;;5056415;28;20201;-58
2021/12/29 00:55:20;;;;;;;54.75;28.60;;;;;;;;;;5056524;28;20218;-59
2021/12/29 00:57:47;;;;;;;59.92;28.80;;;;;;;;;;5056660;28;20506;-58
2021/12/29 01:00:15;;;;;;;59.33;30.02;;;;;;;;;;5055976;28;20534;-58
2021/12/29 01:02:41;;;;;;;58.30;28.17;;;;;;;;;;5056347;28;20177;-59
2021/12/29 01:05:08;;;;;;;60.65;29.13;;;;;;;;;;5055874;28;20169;-59
2021/12/29 01:07:34;;;;;;;56.15;28.27;;;;;;;;;;5055813;28;20191;-60
2021/12/29 01:10:00;;;;;;;60.38;29.30;;;;;;;;;;5055634;28;20807;-59
2021/12/29 01:12:27;;;;;;;59.20;29.23;;;;;;;;;;5055675;28;20271;-58
2021/12/29 01:14:55;;;;;;;58.70;28.17;;;;;;;;;;5056108;28;20218;-59
2021/12/29 01:17:22;;;;;;;55.03;26.88;;;;;;;;;;5056261;28;20165;-58
2021/12/29 01:19:49;;;;;;;63.22;29.02;;;;;;;;;;5056128;28;20184;-58
2021/12/29 01:22:16;;;;;;;59.20;28.92;;;;;;;;;;5056146;28;20176;-60
2021/12/29 01:24:43;;;;;;;62.10;28.60;;;;;;;;;;5055591;28;20244;-61
2021/12/29 01:27:09;;;;;;;58.70;29.30;;;;;;;;;;5055524;28;20501;-61
2021/12/29 01:29:35;;;;;;;60.47;28.92;;;;;;;;;;5055636;28;20180;-61
2021/12/29 01:32:01;;;;;;;55.47;28.17;;;;;;;;;;5055690;28;20189;-61
2021/12/29 01:34:28;;;;;;;62.90;28.83;;;;;;;;;;5055487;28;20167;-60
2021/12/29 01:36:54;;;;;;;61.38;30.70;;;;;;;;;;5055409;28;20165;-60
2021/12/29 01:39:21;;;;;;;58.70;29.33;;;;;;;;;;5055736;28;20255;-60
2021/12/29 01:41:48;;;;;;;58.28;28.92;;;;;;;;;;5055513;28;20303;-61
2021/12/29 01:44:15;;;;;;;59.08;27.85;;;;;;;;;;5055589;28;20254;-60
2021/12/29 01:46:42;;;;;;;57.63;28.67;;;;;;;;;;5055362;28;20165;-61
2021/12/29 01:49:08;;;;;;;63.70;30.33;;;;;;;;;;5055542;28;20302;-61
2021/12/29 01:51:35;;;;;;;58.20;28.85;;;;;;;;;;5055398;28;20572;-61
2021/12/29 01:54:23;;;;;;;58.88;29.42;;;;;;;;;;5055119;28;20635;-61
2021/12/29 01:56:50;;;;;;;58.88;27.88;;;;;;;;;;5055209;28;20154;-60
2021/12/29 01:59:16;;;;;;;57.20;28.45;;;;;;;;;;5054865;28;20165;-61
2021/12/29 02:01:42;;;;;;;53.45;27.95;;;;;;;;;;5054913;28;20192;-60
2021/12/29 02:04:08;;;;;;;58.15;28.48;;;;;;;;;;5054803;28;20180;-60
2021/12/29 02:06:34;;;;;;;59.00;29.95;;;;;;;;;;5054920;28;20169;-60
2021/12/29 02:09:00;;;;;;;63.25;29.10;;;;;;;;;;5055030;28;20173;-61
2021/12/29 02:11:30;;;;;;;59.63;29.85;;;;;;;;;;5054822;28;20177;-61
2021/12/29 02:13:57;;;;;;;58.47;29.10;;;;;;;;;;5055014;28;20251;-60
2021/12/29 02:16:23;;;;;;;59.58;30.38;;;;;;;;;;5054768;28;20230;-60
2021/12/29 02:18:57;;;;;;;62.92;30.15;;;;;;;;;;5054500;28;20589;-60
2021/12/29 02:21:25;;;;;;;58.25;29.73;;;;;;;;;;5054434;28;20178;-60
2021/12/29 02:24:15;;;;;;;62.83;30.60;;;;;;;;;;5054502;28;20168;-60
2021/12/29 02:26:40;;;;;;;60.60;30.60;;;;;;;;;;5054127;28;20612;-60
2021/12/29 02:29:11;;;;;;;60.58;30.27;;;;;;;;;;5054175;28;20234;-60
2021/12/29 02:31:37;;;;;;;61.72;30.77;;;;;;;;;;5054011;28;20195;-61
2021/12/29 02:34:04;;;;;;;63.00;30.70;;;;;;;;;;5054222;28;20165;-60
2021/12/29 02:36:30;;;;;;;63.45;31.23;;;;;;;;;;5054393;28;20255;-60
2021/12/29 02:38:57;;;;;;;64.10;31.13;;;;;;;;;;5054149;28;20165;-60
2021/12/29 02:41:26;;;;;;;66.97;31.73;;;;;;;;;;5053888;28;20267;-60
2021/12/29 02:43:59;;;;;;;66.18;31.75;;;;;;;;;;5054238;28;20259;-60
2021/12/29 02:46:26;;;;;;;68.88;31.88;;;;;;;;;;5054186;28;20153;-60
2021/12/29 02:48:59;;;;;;;70.65;31.98;;;;;;;;;;5054116;28;20173;-60
2021/12/29 02:51:25;;;;;;;64.63;31.52;;;;;;;;;;5054233;28;20195;-60
2021/12/29 02:53:51;;;;;;;66.55;31.05;;;;;;;;;;5053805;28;20177;-60
2021/12/29 02:56:17;;;;;;;69.78;32.20;;;;;;;;;;5053917;28;20168;-60
2021/12/29 02:58:43;;;;;;;65.93;32.33;;;;;;;;;;5053741;28;20504;-60
2021/12/29 03:01:11;;;;;;;65.07;31.45;;;;;;;;;;5053884;28;20165;-59
2021/12/29 03:03:37;;;;;;;65.80;33.00;;;;;;;;;;5053622;28;20184;-59
2021/12/29 03:06:07;;;;;;;63.10;31.75;;;;;;;;;;5054038;28;20502;-60
2021/12/29 03:08:34;;;;;;;73.35;32.70;;;;;;;;;;5053649;28;20461;-59
2021/12/29 03:11:00;;;;;;;69.95;32.95;;;;;;;;;;5053882;28;20219;-59
2021/12/29 03:13:27;;;;;;;69.80;30.75;;;;;;;;;;5053858;28;20562;-60
2021/12/29 03:15:54;;;;;;;71.45;33.25;;;;;;;;;;5053523;28;20184;-60
2021/12/29 03:18:20;;;;;;;69.25;32.90;;;;;;;;;;5053696;28;20263;-60
2021/12/29 03:20:46;;;;;;;62.75;31.75;;;;;;;;;;5053758;28;20192;-59
2021/12/29 03:23:13;;;;;;;72.70;33.22;;;;;;;;;;5053692;28;20173;-59
2021/12/29 03:25:39;;;;;;;66.25;32.42;;;;;;;;;;5053546;28;20168;-59
2021/12/29 03:28:05;;;;;;;76.53;34.17;;;;;;;;;;5054209;28;20687;-59
2021/12/29 03:30:33;;;;;;;77.93;34.03;;;;;;;;;;5053780;28;20169;-59
2021/12/29 03:33:05;;;;;;;70.40;33.53;;;;;;;;;;5057163;28;20334;-59
2021/12/29 03:35:36;;;;;;;71.53;32.88;;;;;;;;;;5058007;28;20236;-59
2021/12/29 03:38:03;;;;;;;73.30;34.72;;;;;;;;;;5057526;28;20600;-58
2021/12/29 03:40:30;;;;;;;78.93;33.42;;;;;;;;;;5057728;28;20168;-60
2021/12/29 03:42:56;;;;;;;70.47;33.17;;;;;;;;;;5057551;28;20179;-59
2021/12/29 03:45:22;;;;;;;76.50;34.05;;;;;;;;;;5057795;28;20177;-59
2021/12/29 03:47:48;;;;;;;72.80;33.38;;;;;;;;;;5057457;28;20239;-60
2021/12/29 03:50:14;;;;;;;71.82;32.42;;;;;;;;;;5057442;28;20175;-59
2021/12/29 03:52:40;;;;;;;77.97;33.22;;;;;;;;;;5057216;28;20201;-60
2021/12/29 03:55:07;;;;;;;73.30;33.33;;;;;;;;;;5057157;28;20184;-60
2021/12/29 03:57:33;;;;;;;80.45;35.20;;;;;;;;;;5057356;28;20517;-60
2021/12/29 03:59:59;;;;;;;81.82;33.72;;;;;;;;;;5056963;28;20167;-60
2021/12/29 04:02:25;;;;;;;82.47;34.45;;;;;;;;;;5056879;28;20651;-60
2021/12/29 04:04:51;;;;;;;74.60;33.45;;;;;;;;;;5056956;28;20169;-60
2021/12/29 04:07:17;;;;;;;80.80;33.72;;;;;;;;;;5056723;28;20171;-59
2021/12/29 04:09:42;;;;;;;80.53;34.47;;;;;;;;;;5056824;28;20192;-57
2021/12/29 04:12:09;;;;;;;86.07;35.92;;;;;;;;;;5056637;28;20698;-60
2021/12/29 04:14:35;;;;;;;80.97;35.33;;;;;;;;;;5056649;28;20192;-58
2021/12/29 04:17:08;;;;;;;80.90;33.40;;;;;;;;;;5056967;28;20161;-59
2021/12/29 04:20:54;;;;;;;83.38;34.78;;;;;;;;;;5056881;28;20145;-58
2021/12/29 04:22:27;;;;;;;77.13;34.53;;;;;;;;;;5056680;28;20181;-58
2021/12/29 04:24:53;;;;;;;82.93;35.78;;;;;;;;;;5056639;28;20527;-60
2021/12/29 04:27:22;;;;;;;78.45;32.63;;;;;;;;;;5056931;28;20179;-60
2021/12/29 04:29:48;;;;;;;89.88;35.03;;;;;;;;;;5056427;28;20496;-60
2021/12/29 04:32:14;;;;;;;86.68;34.30;;;;;;;;;;5056701;28;20196;-60
2021/12/29 04:34:40;;;;;;;80.47;33.42;;;;;;;;;;5056389;28;20248;-56
2021/12/29 04:37:06;;;;;;;83.32;34.50;;;;;;;;;;5056428;28;20177;-60
2021/12/29 04:39:32;;;;;;;82.43;34.00;;;;;;;;;;5056486;28;20493;-58
2021/12/29 04:41:58;;;;;;;86.03;33.88;;;;;;;;;;5056251;28;20169;-58
2021/12/29 04:44:24;;;;;;;83.93;35.70;;;;;;;;;;5058616;28;20271;-59
2021/12/29 04:46:50;;;;;;;88.10;35.00;;;;;;;;;;5059034;28;20180;-59
2021/12/29 04:49:22;;;;;;;93.38;36.58;;;;;;;;;;5059013;28;20175;-60
2021/12/29 04:51:56;;;;;;;91.05;35.65;;;;;;;;;;5058435;28;20203;-60
2021/12/29 04:54:22;;;;;;;95.90;35.15;;;;;;;;;;5058333;28;20208;-60
2021/12/29 04:56:48;;;;;;;91.40;33.72;;;;;;;;;;5058672;28;20161;-60
2021/12/29 04:59:17;;;;;;;100.68;37.42;;;;;;;;;;5060579;28;20271;-60
2021/12/29 05:01:44;;;;;;;93.47;34.88;;;;;;;;;;5061751;28;20251;-59
2021/12/29 05:04:10;;;;;;;98.13;36.70;;;;;;;;;;5061534;28;20164;-60
2021/12/29 05:09:20;;;;;;;91.88;34.50;;;;;;;;;;5060990;28;20169;-60
2021/12/29 05:11:46;;;;;;;99.63;35.97;;;;;;;;;;5061055;28;20193;-60
2021/12/29 05:14:13;;;;;;;92.40;34.90;;;;;;;;;;5064295;28;20167;-60
2021/12/29 05:16:39;;;;;;;88.10;35.60;;;;;;;;;;5065464;28;20214;-60
2021/12/29 05:19:05;;;;;;;91.18;35.00;;;;;;;;;;5066479;28;20172;-60
2021/12/29 05:21:31;;;;;;;97.00;36.70;;;;;;;;;;5067279;28;20219;-59
2021/12/29 05:23:57;;;;;;;94.75;34.60;;;;;;;;;;5070086;28;20172;-59
2021/12/29 05:26:23;;;;;;;86.93;34.53;;;;;;;;;;5072908;28;20221;-60
2021/12/29 05:28:49;;;;;;;90.95;34.83;;;;;;;;;;5073310;28;20161;-60
2021/12/29 05:31:15;;;;;;;90.60;35.50;;;;;;;;;;5064014;28;20432;-60
2021/12/29 05:33:41;;;;;;;91.50;35.25;;;;;;;;;;5055207;28;20643;-60
2021/12/29 05:36:07;;;;;;;87.78;34.10;;;;;;;;;;5055500;28;20172;-59
2021/12/29 05:38:33;;;;;;;95.05;37.22;;;;;;;;;;5055428;28;20176;-59
2021/12/29 05:40:59;;;;;;;83.95;34.60;;;;;;;;;;5055127;28;20218;-58
2021/12/29 05:43:25;;;;;;;93.68;35.60;;;;;;;;;;5054890;28;20161;-59
2021/12/29 05:45:51;;;;;;;98.60;35.92;;;;;;;;;;5054965;28;20616;-58
2021/12/29 05:48:18;;;;;;;93.20;35.13;;;;;;;;;;5055184;28;20173;-59
2021/12/29 05:50:44;;;;;;;94.97;35.10;;;;;;;;;;5054793;28;20277;-58
2021/12/29 05:53:09;;;;;;;94.78;36.15;;;;;;;;;;5054596;28;20775;-58
2021/12/29 05:55:35;;;;;;;100.32;36.88;;;;;;;;;;5054684;28;20264;-58
2021/12/29 05:58:01;;;;;;;97.18;34.92;;;;;;;;;;5055204;28;20161;-59
2021/12/29 06:00:27;;;;;;;106.00;36.80;;;;;;;;;;5054906;28;20493;-60
2021/12/29 06:02:54;;;;;;;99.78;37.72;;;;;;;;;;5054645;28;20680;-59
2021/12/29 06:05:23;;;;;;;90.82;34.72;;;;;;;;;;5054604;28;20183;-59
2021/12/29 06:07:49;;;;;;;90.32;34.72;;;;;;;;;;5054813;28;20165;-59
2021/12/29 06:10:15;;;;;;;97.10;37.15;;;;;;;;;;5054536;28;20745;-59
2021/12/29 06:12:41;;;;;;;91.88;34.78;;;;;;;;;;5054408;28;20189;-60
2021/12/29 06:15:08;;;;;;;97.65;34.15;;;;;;;;;;5054320;28;20197;-60
2021/12/29 06:17:34;;;;;;;100.60;37.33;;;;;;;;;;5054510;28;20299;-60
2021/12/29 06:20:00;;;;;;;100.07;35.55;;;;;;;;;;5054090;28;20248;-60
2021/12/29 06:22:26;;;;;;;113.53;35.75;;;;;;;;;;5054194;28;20198;-60
2021/12/29 06:24:52;;;;;;;94.95;36.25;;;;;;;;;;5054063;28;20703;-60
2021/12/29 06:27:22;;;;;;;117.35;36.83;;;;;;;;;;5059137;28;20175;-58
2021/12/29 06:29:49;;;;;;;105.80;35.53;;;;;;;;;;5054177;28;20188;-58
2021/12/29 06:32:15;;;;;;;115.78;36.28;;;;;;;;;;5053973;28;20192;-59
2021/12/29 06:34:41;;;;;;;102.68;34.92;;;;;;;;;;5054105;28;20197;-59
2021/12/29 06:37:12;;;;;;;101.65;33.90;;;;;;;;;;5054372;28;20189;-60
2021/12/29 06:39:39;;;;;;;106.22;37.65;;;;;;;;;;5054287;28;20457;-60
2021/12/29 06:42:05;;;;;;;95.63;34.38;;;;;;;;;;5054135;28;20211;-60
2021/12/29 06:44:31;;;;;;;104.15;36.92;;;;;;;;;;5054119;28;20552;-61
2021/12/29 06:46:57;;;;;;;107.53;38.10;;;;;;;;;;5054227;28;20165;-58
2021/12/29 06:49:23;;;;;;;98.93;35.25;;;;;;;;;;5054043;28;20168;-57
2021/12/29 06:51:49;;;;;;;108.10;37.45;;;;;;;;;;5053710;28;20223;-59
2021/12/29 06:54:15;;;;;;;96.20;36.00;;;;;;;;;;5053788;28;20177;-59
2021/12/29 06:56:41;;;;;;;106.07;36.83;;;;;;;;;;5053654;28;20507;-61
2021/12/29 06:59:07;;;;;;;97.47;35.60;;;;;;;;;;5053669;28;20184;-58
2021/12/29 07:01:33;;;;;;;103.15;36.15;;;;;;;;;;5053632;28;20207;-59
2021/12/29 07:03:59;;;;;;;101.45;36.88;;;;;;;;;;5053658;28;20251;-59
2021/12/29 07:06:25;;;;;;;97.47;36.53;;;;;;;;;;5052711;28;20258;-58
2021/12/29 07:08:51;;;;;;;97.25;36.88;;;;;;;;;;5054056;28;20165;-59
2021/12/29 07:11:17;;;;;;;99.95;37.55;;;;;;;;;;5053976;28;20172;-61
2021/12/29 07:13:44;;;;;;;110.78;38.60;;;;;;;;;;5053609;28;20203;-60
2021/12/29 07:16:10;;;;;;;105.72;37.20;;;;;;;;;;5053712;28;20165;-58
2021/12/29 07:18:36;;;;;;;105.32;37.33;;;;;;;;;;5053412;28;20222;-60
2021/12/29 07:21:02;;;;;;;103.57;38.17;;;;;;;;;;5053658;28;20517;-59
2021/12/29 07:23:28;;;;;;;104.82;36.88;;;;;;;;;;5053523;28;20168;-58
2021/12/29 07:25:54;;;;;;;103.63;37.58;;;;;;;;;;5053589;28;20169;-60
2021/12/29 07:28:20;;;;;;;107.15;35.75;;;;;;;;;;5053361;28;20260;-60
2021/12/29 07:30:46;;;;;;;100.88;36.35;;;;;;;;;;5053298;28;20177;-60
2021/12/29 07:33:12;;;;;;;111.68;37.58;;;;;;;;;;5053244;28;20667;-60
2021/12/29 07:35:38;;;;;;;104.00;35.55;;;;;;;;;;5053442;28;20161;-59
2021/12/29 07:38:04;;;;;;;103.38;36.55;;;;;;;;;;5053356;28;20165;-60
2021/12/29 07:40:30;;;;;;;101.63;36.15;;;;;;;;;;5053260;28;20161;-60
2021/12/29 07:42:56;;;;;;;88.38;32.75;;;;;;;;;;5053623;28;20510;-58
2021/12/29 07:45:25;;;;;;;115.68;37.50;;;;;;;;;;5053588;28;20197;-59
2021/12/29 07:47:51;;;;;;;108.35;37.67;;;;;;;;;;5053639;28;20263;-59
2021/12/29 07:50:18;;;;;;;106.32;39.45;;;;;;;;;;5053767;28;20173;-59
2021/12/29 07:52:47;;;;;;;104.95;37.22;;;;;;;;;;5053286;28;20636;-59
2021/12/29 07:55:13;;;;;;;111.97;36.70;;;;;;;;;;5053881;28;20210;-59
2021/12/29 07:57:39;;;;;;;104.20;37.33;;;;;;;;;;5053555;28;20172;-58
2021/12/29 08:00:06;;;;;;;111.53;36.75;;;;;;;;;;5053660;28;20157;-60
2021/12/29 08:02:32;;;;;;;116.80;38.40;;;;;;;;;;5053387;28;20192;-60
2021/12/29 08:04:58;;;;;;;126.57;40.65;;;;;;;;;;5053363;28;20596;-59
2021/12/29 08:07:25;;;;;;;138.73;38.97;;;;;;;;;;5053313;28;20169;-59
2021/12/29 08:09:51;;;;;;;154.27;40.10;;;;;;;;;;5053221;28;20230;-60
2021/12/29 08:12:17;;;;;;;130.90;39.10;;;;;;;;;;5053164;28;20227;-60
2021/12/29 08:14:45;;;;;;;149.95;38.38;;;;;;;;;;5052942;28;20683;-60
2021/12/29 08:17:11;;;;;;;128.02;40.17;;;;;;;;;;5052516;28;20192;-59
2021/12/29 08:19:37;;;;;;;147.93;40.50;;;;;;;;;;5056835;28;20197;-59
2021/12/29 08:22:03;;;;;;;134.77;40.15;;;;;;;;;;5057407;28;20168;-59
2021/12/29 08:24:29;;;;;;;135.52;39.30;;;;;;;;;;5056854;28;20255;-60
2021/12/29 08:26:55;;;;;;;133.50;39.30;;;;;;;;;;5056686;28;20260;-59
2021/12/29 08:29:21;;;;;;;128.35;38.78;;;;;;;;;;5056995;28;20539;-59
2021/12/29 08:31:47;;;;;;;142.45;40.97;;;;;;;;;;5056828;28;20279;-60
2021/12/29 08:34:14;;;;;;;134.73;39.78;;;;;;;;;;5056552;28;20493;-58
2021/12/29 08:36:40;;;;;;;125.93;39.05;;;;;;;;;;5056535;28;20676;-60
2021/12/29 08:39:06;;;;;;;138.85;41.15;;;;;;;;;;5056744;28;20248;-60
2021/12/29 08:41:32;;;;;;;121.85;41.33;;;;;;;;;;5056456;28;20568;-59
2021/12/29 08:43:58;;;;;;;133.32;40.10;;;;;;;;;;5056441;28;20168;-59
2021/12/29 08:46:24;;;;;;;130.80;40.42;;;;;;;;;;5056148;28;20161;-59
2021/12/29 08:48:50;;;;;;;120.03;39.70;;;;;;;;;;5056425;28;20320;-58
2021/12/29 08:51:17;;;;;;;192.60;42.15;;;;;;;;;;5056475;28;20183;-60
2021/12/29 08:53:43;;;;;;;135.23;40.05;;;;;;;;;;5056112;28;20215;-58
2021/12/29 08:56:09;;;;;;;124.22;37.58;;;;;;;;;;5056833;28;20161;-60
2021/12/29 08:58:35;;;;;;;131.80;38.83;;;;;;;;;;5056157;28;20168;-60
2021/12/29 09:01:02;;;;;;;127.53;38.78;;;;;;;;;;5056273;28;20169;-59
2021/12/29 09:03:28;;;;;;;135.18;38.45;;;;;;;;;;5056378;28;20187;-60
2021/12/29 09:05:54;;;;;;;124.03;39.90;;;;;;;;;;5056085;28;20169;-60
2021/12/29 09:08:20;;;;;;;123.68;39.25;;;;;;;;;;5055852;28;20165;-60
2021/12/29 09:10:46;;;;;;;126.82;38.83;;;;;;;;;;5055801;28;20687;-60
2021/12/29 09:13:12;;;;;;;121.43;39.13;;;;;;;;;;5055750;28;20256;-60
2021/12/29 09:15:39;;;;;;;139.02;39.50;;;;;;;;;;5055650;28;20219;-58
2021/12/29 09:18:05;;;;;;;126.18;41.17;;;;;;;;;;5055669;28;20171;-59
2021/12/29 09:20:33;;;;;;;133.10;42.35;;;;;;;;;;5055900;28;20161;-59
2021/12/29 09:23:04;;;;;;;124.28;37.17;;;;;;;;;;5055743;28;20663;-59
2021/12/29 09:25:30;;;;;;;131.55;40.30;;;;;;;;;;5055556;28;20259;-59
2021/12/29 09:27:56;;;;;;;128.27;39.42;;;;;;;;;;5055374;28;20177;-61
2021/12/29 09:30:24;;;;;;;119.90;39.78;;;;;;;;;;5054462;28;20176;-61
2021/12/29 09:32:50;;;;;;;119.65;39.95;;;;;;;;;;5055508;28;20188;-60
2021/12/29 09:35:16;;;;;;;110.60;38.13;;;;;;;;;;5055595;28;20180;-60
2021/12/29 09:37:43;;;;;;;115.00;40.53;;;;;;;;;;5055698;28;20208;-60
2021/12/29 09:40:10;;;;;;;119.65;39.75;;;;;;;;;;5055544;28;20248;-59
2021/12/29 09:42:36;;;;;;;113.53;37.38;;;;;;;;;;5055088;28;20172;-60
2021/12/29 09:45:03;;;;;;;109.57;40.17;;;;;;;;;;5055415;28;20295;-59
2021/12/29 09:47:29;;;;;;;114.32;37.13;;;;;;;;;;5055035;28;20314;-60
2021/12/29 09:49:56;;;;;;;105.03;37.83;;;;;;;;;;5055279;28;20165;-60
2021/12/29 09:52:22;;;;;;;98.63;36.00;;;;;;;;;;5054748;28;20181;-59
2021/12/29 09:54:48;;;;;;;106.45;36.00;;;;;;;;;;5055214;28;20153;-60
2021/12/29 09:57:14;;;;;;;103.93;34.10;;;;;;;;;;5054816;28;20230;-61
2021/12/29 09:59:40;;;;;;;99.57;35.83;;;;;;;;;;5054914;28;20581;-60
2021/12/29 10:02:06;;;;;;;92.88;34.70;;;;;;;;;;5054611;28;20176;-60
2021/12/29 10:04:36;;;;;;;94.53;35.15;;;;;;;;;;5055036;28;20176;-60
2021/12/29 10:07:15;;;;;;;99.13;34.88;;;;;;;;;;5054737;28;20173;-60
2021/12/29 10:09:41;;;;;;;104.03;34.95;;;;;;;;;;5054689;28;20259;-61
2021/12/29 10:12:17;;;;;;;95.53;34.35;;;;;;;;;;5054389;28;20296;-61
2021/12/29 10:14:46;;;;;;;97.18;34.15;;;;;;;;;;5054584;28;20627;-59
2021/12/29 10:17:12;;;;;;;98.93;34.50;;;;;;;;;;5054603;28;20234;-58
2021/12/29 10:19:38;;;;;;;90.80;34.00;;;;;;;;;;5054338;28;20534;-57
2021/12/29 10:22:04;;;;;;;87.15;32.90;;;;;;;;;;5054476;28;20247;-59
2021/12/29 10:24:30;;;;;;;86.22;33.83;;;;;;;;;;5054418;28;20165;-59
2021/12/29 10:26:58;;;;;;;88.35;33.63;;;;;;;;;;5054426;28;20173;-59
2021/12/29 10:29:24;;;;;;;80.28;30.85;;;;;;;;;;5054490;28;20169;-59
2021/12/29 10:31:57;;;;;;;94.25;33.53;;;;;;;;;;5054049;28;20197;-59
2021/12/29 10:34:29;;;;;;;101.45;33.33;;;;;;;;;;5054179;28;20173;-59
2021/12/29 10:36:59;;;;;;;97.43;34.70;;;;;;;;;;5054716;28;20173;-59
2021/12/29 10:39:30;;;;;;;98.55;33.45;;;;;;;;;;5054405;28;20165;-59
2021/12/29 10:42:04;;;;;;;100.68;33.72;;;;;;;;;;5054027;28;20202;-59
2021/12/29 10:44:47;;;;;;;109.30;37.35;;;;;;;;;;5054024;28;20584;-58
2021/12/29 10:47:15;;;;;;;110.72;35.90;;;;;;;;;;5053829;28;20169;-59
2021/12/29 10:50:01;;;;;;;104.00;34.53;;;;;;;;;;5054480;28;20263;-60
2021/12/29 10:52:28;;;;;;;114.25;35.50;;;;;;;;;;5053753;28;20215;-60
2021/12/29 10:54:54;;;;;;;119.15;39.65;;;;;;;;;;5054813;28;20160;-59
2021/12/29 10:57:20;;;;;;;94.35;34.78;;;;;;;;;;5053855;28;20596;-58
2021/12/29 10:59:46;;;;;;;129.18;38.00;;;;;;;;;;5062604;28;20252;-60
2021/12/29 11:02:12;;;;;;;122.65;37.42;;;;;;;;;;5058180;28;20165;-60
2021/12/29 11:04:38;;;;;;;127.78;38.60;;;;;;;;;;5053760;28;20596;-60
2021/12/29 11:07:05;;;;;;;111.95;38.45;;;;;;;;;;5053634;28;20680;-60
2021/12/29 11:09:32;;;;;;;115.15;37.17;;;;;;;;;;5053602;28;20596;-60
2021/12/29 11:11:59;;;;;;;115.63;38.22;;;;;;;;;;5053908;28;20655;-60
2021/12/29 11:14:27;;;;;;;123.78;37.88;;;;;;;;;;5053630;28;20165;-59
2021/12/29 11:17:15;;;;;;;117.43;37.65;;;;;;;;;;5053611;28;20505;-59
2021/12/29 11:19:45;;;;;;;104.47;36.47;;;;;;;;;;5053517;28;20203;-59
2021/12/29 11:22:15;;;;;;;116.78;38.67;;;;;;;;;;5053687;28;20173;-59
2021/12/29 11:24:43;;;;;;;121.43;38.08;;;;;;;;;;5053628;28;20172;-60
2021/12/29 11:27:10;;;;;;;117.57;37.88;;;;;;;;;;5053250;28;20258;-59
2021/12/29 11:29:36;;;;;;;129.70;41.40;;;;;;;;;;5053604;28;20176;-59
2021/12/29 11:32:04;;;;;;;120.00;40.17;;;;;;;;;;5053315;28;20522;-59
2021/12/29 11:34:30;;;;;;;112.45;37.95;;;;;;;;;;5052719;28;20161;-60
2021/12/29 11:37:07;;;;;;;104.30;39.28;;;;;;;;;;5053380;28;20252;-60
2021/12/29 11:39:34;;;;;;;106.85;38.05;;;;;;;;;;5053428;28;20165;-61
2021/12/29 11:42:00;;;;;;;110.78;38.13;;;;;;;;;;5053216;28;20666;-60
2021/12/29 11:44:26;;;;;;;120.78;39.25;;;;;;;;;;5053104;28;20206;-60
2021/12/29 11:46:52;;;;;;;120.70;38.15;;;;;;;;;;5053555;28;20230;-58
2021/12/29 11:49:18;;;;;;;110.05;37.75;;;;;;;;;;5053073;28;20218;-58
2021/12/29 11:52:02;;;;;;;115.57;38.33;;;;;;;;;;5053239;28;20256;-59
2021/12/29 11:54:34;;;;;;;117.15;37.72;;;;;;;;;;5057552;28;20168;-58
2021/12/29 11:57:10;;;;;;;119.93;38.58;;;;;;;;;;5057196;28;20157;-59
2021/12/29 11:59:36;;;;;;;116.10;39.17;;;;;;;;;;5057549;28;20168;-59
2021/12/29 12:02:02;;;;;;;108.72;37.47;;;;;;;;;;5056968;28;20484;-59
2021/12/29 12:04:29;;;;;;;119.45;38.13;;;;;;;;;;5057313;28;20203;-61
2021/12/29 12:07:21;;;;;;;115.72;39.22;;;;;;;;;;5057293;28;20495;-61
2021/12/29 12:09:48;;;;;;;111.35;36.70;;;;;;;;;;5053217;28;20272;-60
2021/12/29 12:12:14;;;;;;;110.90;37.67;;;;;;;;;;5056707;28;20718;-60
2021/12/29 12:14:50;;;;;;;120.20;39.67;;;;;;;;;;5056664;28;20165;-60
2021/12/29 12:17:18;;;;;;;112.57;40.33;;;;;;;;;;5056779;28;20184;-60
2021/12/29 12:19:45;;;;;;;116.15;39.17;;;;;;;;;;5056750;28;20230;-60
2021/12/29 12:22:13;;;;;;;112.53;37.90;;;;;;;;;;5057089;28;20176;-60
2021/12/29 12:24:41;;;;;;;122.80;38.58;;;;;;;;;;5056975;28;20176;-60
2021/12/29 12:27:11;;;;;;;117.13;36.95;;;;;;;;;;5056817;28;20208;-60
2021/12/29 12:29:38;;;;;;;110.65;39.05;;;;;;;;;;5056703;28;20161;-60
2021/12/29 12:32:15;;;;;;;105.03;35.33;;;;;;;;;;5056670;28;20620;-60
2021/12/29 12:34:47;;;;;;;114.03;36.92;;;;;;;;;;5056913;28;20187;-60
2021/12/29 12:37:24;;;;;;;106.18;36.40;;;;;;;;;;5056559;28;20500;-59
2021/12/29 12:39:53;;;;;;;95.45;35.15;;;;;;;;;;5056749;28;20203;-59
2021/12/29 12:42:19;;;;;;;99.55;34.45;;;;;;;;;;5056674;28;20172;-60
2021/12/29 12:44:45;;;;;;;103.68;35.40;;;;;;;;;;5056446;28;20600;-60
2021/12/29 12:47:13;;;;;;;117.82;36.97;;;;;;;;;;5056279;28;20234;-61
2021/12/29 12:49:47;;;;;;;105.18;34.78;;;;;;;;;;5056198;28;20275;-61
2021/12/29 12:52:13;;;;;;;109.22;35.53;;;;;;;;;;5056017;28;20199;-60
2021/12/29 12:54:45;;;;;;;96.85;34.40;;;;;;;;;;5056101;28;20545;-61
2021/12/29 12:57:11;;;;;;;106.57;36.22;;;;;;;;;;5056267;28;20202;-60
2021/12/29 12:59:39;;;;;;;107.57;37.30;;;;;;;;;;5055923;28;20196;-60
2021/12/29 13:02:11;;;;;;;100.05;34.97;;;;;;;;;;5055937;28;20199;-60
2021/12/29 13:04:42;;;;;;;118.70;36.63;;;;;;;;;;5054715;28;20169;-60
2021/12/29 13:07:08;;;;;;;107.10;35.47;;;;;;;;;;5054894;28;20256;-60
2021/12/29 13:09:34;;;;;;;103.90;36.05;;;;;;;;;;5055679;28;20201;-60
2021/12/29 13:12:02;;;;;;;106.00;35.97;;;;;;;;;;5055692;28;20216;-60
2021/12/29 13:14:28;;;;;;;110.25;35.65;;;;;;;;;;5055550;28;20670;-60
2021/12/29 13:16:54;;;;;;;111.75;37.72;;;;;;;;;;5055990;28;20166;-61
2021/12/29 13:19:24;;;;;;;107.40;36.30;;;;;;;;;;5055508;28;20161;-60
2021/12/29 13:21:50;;;;;;;110.07;36.05;;;;;;;;;;5055750;28;20164;-59
2021/12/29 13:24:16;;;;;;;111.40;35.40;;;;;;;;;;5055823;28;20168;-60
2021/12/29 13:26:44;;;;;;;108.78;37.00;;;;;;;;;;5055912;28;20176;-59
2021/12/29 13:29:13;;;;;;;108.93;38.00;;;;;;;;;;5055484;28;20169;-60
2021/12/29 13:31:39;;;;;;;108.82;36.95;;;;;;;;;;5055340;28;20473;-59
2021/12/29 13:34:05;;;;;;;106.13;36.15;;;;;;;;;;5055320;28;20179;-57
2021/12/29 13:36:31;;;;;;;112.20;36.13;;;;;;;;;;5055432;28;20519;-58
2021/12/29 13:38:58;;;;;;;99.45;36.08;;;;;;;;;;5055572;28;20169;-60
2021/12/29 13:41:27;;;;;;;108.90;36.80;;;;;;;;;;5055189;28;20563;-61
2021/12/29 13:43:54;;;;;;;98.82;35.15;;;;;;;;;;5055453;28;20849;-61
2021/12/29 13:46:21;;;;;;;86.35;33.88;;;;;;;;;;5054999;28;20172;-61
2021/12/29 13:48:48;;;;;;;89.82;33.78;;;;;;;;;;5054912;28;20270;-60
2021/12/29 13:51:24;;;;;;;97.70;34.50;;;;;;;;;;5055235;28;20542;-60
2021/12/29 13:53:51;;;;;;;92.40;32.70;;;;;;;;;;5054546;28;20226;-60
2021/12/29 13:56:25;;;;;;;101.25;34.63;;;;;;;;;;5055114;28;20201;-61
2021/12/29 13:58:56;;;;;;;100.63;34.75;;;;;;;;;;5054704;28;20223;-59
2021/12/29 14:01:22;;;;;;;101.07;35.78;;;;;;;;;;5054695;28;20223;-61
2021/12/29 14:03:48;;;;;;;96.35;35.85;;;;;;;;;;5054679;28;20192;-61
2021/12/29 14:06:14;;;;;;;110.88;38.65;;;;;;;;;;5054904;28;20651;-61
2021/12/29 14:08:40;;;;;;;106.47;37.97;;;;;;;;;;5054572;28;20165;-61
2021/12/29 14:11:07;;;;;;;115.30;40.08;;;;;;;;;;5054597;28;20169;-61
2021/12/29 14:13:34;;;;;;;106.10;37.70;;;;;;;;;;5054733;28;20184;-61
2021/12/29 14:16:02;;;;;;;104.07;35.58;;;;;;;;;;5054362;28;20173;-61